createdAt,value
2022-10-12T00:01:32.687Z,38.22
2022-10-12T00:04:06.010Z,40.20
2022-10-12T00:07:01.809Z,39.60
2022-10-12T00:09:38.834Z,35.60
2022-10-12T00:12:21.031Z,35.83
2022-10-12T00:15:09.174Z,36.40
2022-10-12T00:17:41.843Z,33.53
2022-10-12T00:20:16.995Z,32.85
2022-10-12T00:22:58.608Z,35.88
2022-10-12T00:25:32.193Z,33.67
2022-10-12T00:28:01.967Z,30.23
2022-10-12T00:30:31.467Z,37.03
2022-10-12T00:33:10.584Z,35.40
2022-10-12T00:35:38.220Z,33.85
2022-10-12T00:38:07.988Z,38.58
2022-10-12T00:40:37.694Z,36.83
2022-10-12T00:43:28.357Z,41.78
2022-10-12T00:46:02.406Z,43.58
2022-10-12T00:48:42.142Z,39.88
2022-10-12T00:51:25.485Z,39.22
2022-10-12T00:54:08.466Z,40.13
2022-10-12T00:56:38.975Z,36.58
2022-10-12T00:59:17.455Z,36.17
2022-10-12T01:01:47.032Z,30.90
2022-10-12T01:04:22.967Z,33.70
2022-10-12T01:07:22.229Z,35.42
2022-10-12T01:10:02.281Z,38.03
2022-10-12T01:12:47.198Z,34.92
2022-10-12T01:19:58.910Z,31.38
2022-10-12T01:22:43.728Z,27.60
2022-10-12T01:25:42.872Z,29.90
2022-10-12T01:28:40.011Z,32.15
2022-10-12T01:31:35.622Z,31.50
2022-10-12T01:34:23.300Z,33.50
2022-10-12T01:37:14.781Z,30.23
2022-10-12T01:39:50.501Z,28.52
2022-10-12T01:42:26.207Z,27.90
2022-10-12T01:45:06.949Z,28.50
2022-10-12T01:47:47.723Z,25.63
2022-10-12T01:50:19.033Z,28.10
2022-10-12T01:53:16.083Z,53.80
2022-10-12T01:56:01.053Z,33.40
2022-10-12T01:58:35.809Z,32.13
2022-10-12T02:01:25.471Z,28.88
2022-10-12T02:04:13.529Z,31.27
2022-10-12T02:06:55.457Z,27.52
2022-10-12T02:09:42.557Z,30.20
2022-10-12T02:12:22.203Z,28.70
2022-10-12T02:17:53.739Z,35.72
2022-10-12T02:20:38.248Z,29.30
2022-10-12T02:23:07.473Z,26.67
2022-10-12T02:25:50.991Z,25.55
2022-10-12T02:28:25.348Z,30.80
2022-10-12T02:31:35.635Z,27.83
2022-10-12T02:34:15.607Z,30.30
2022-10-12T02:37:07.670Z,31.15
2022-10-12T02:39:49.968Z,24.98
2022-10-12T02:42:58.448Z,27.08
2022-10-12T02:45:32.150Z,29.45
2022-10-12T02:48:01.285Z,31.25
2022-10-12T02:50:48.272Z,32.42
2022-10-12T02:53:25.937Z,29.75
2022-10-12T02:56:02.108Z,30.92
2022-10-12T02:58:32.465Z,30.83
2022-10-12T03:01:02.242Z,24.58
2022-10-12T03:06:17.112Z,25.48
2022-10-12T03:09:02.560Z,33.30
2022-10-12T03:11:46.156Z,36.47
2022-10-12T03:14:27.178Z,34.65
2022-10-12T03:17:08.665Z,29.65
2022-10-12T03:19:44.629Z,31.95
2022-10-12T03:22:16.043Z,30.55
2022-10-12T03:24:45.625Z,29.98
2022-10-12T03:27:24.611Z,31.75
2022-10-12T03:30:04.818Z,32.63
2022-10-12T03:32:40.698Z,36.13
2022-10-12T03:35:13.757Z,28.98
2022-10-12T03:40:42.930Z,38.97
2022-10-12T03:43:12.780Z,38.25
2022-10-12T03:46:08.502Z,27.63
2022-10-12T03:48:48.199Z,29.70
2022-10-12T03:51:23.542Z,30.80
2022-10-12T03:53:58.880Z,29.15
2022-10-12T03:56:32.070Z,32.97
2022-10-12T03:59:18.234Z,31.40
2022-10-12T04:01:58.445Z,32.13
2022-10-12T04:04:26.306Z,34.47
2022-10-12T04:07:00.385Z,31.08
2022-10-12T04:09:46.663Z,28.88
2022-10-12T04:12:30.949Z,28.58
2022-10-12T04:14:58.741Z,23.05
2022-10-12T04:17:26.100Z,27.08
2022-10-12T04:20:10.818Z,28.98
2022-10-12T04:22:57.440Z,23.90
2022-10-12T04:25:32.300Z,26.67
2022-10-12T04:28:13.185Z,25.80
2022-10-12T04:31:04.973Z,34.10
2022-10-12T04:33:55.213Z,28.98
2022-10-12T04:36:22.883Z,27.90
2022-10-12T04:38:50.884Z,29.77
2022-10-12T04:41:32.068Z,28.40
2022-10-12T04:44:01.784Z,33.72
2022-10-12T04:46:41.273Z,25.15
2022-10-12T04:49:22.753Z,29.30
2022-10-12T04:51:57.206Z,31.08
2022-10-12T04:54:26.949Z,27.45
2022-10-12T04:57:07.560Z,26.88
2022-10-12T04:59:49.487Z,24.15
2022-10-12T05:02:21.669Z,29.77
2022-10-12T05:05:06.759Z,26.10
2022-10-12T05:08:04.037Z,25.38
2022-10-12T05:10:34.163Z,24.35
2022-10-12T05:13:07.906Z,28.30
2022-10-12T05:16:08.749Z,29.25
2022-10-12T05:18:32.829Z,28.90
2022-10-12T05:23:58.368Z,28.88
2022-10-12T05:26:32.562Z,32.92
2022-10-12T05:31:40.556Z,49.55
2022-10-12T05:34:11.759Z,37.67
2022-10-12T05:37:10.657Z,28.55
2022-10-12T05:39:54.894Z,30.38
2022-10-12T05:42:34.931Z,30.23
2022-10-12T05:45:17.098Z,37.50
2022-10-12T05:47:52.241Z,29.35
2022-10-12T05:50:31.879Z,32.83
2022-10-12T05:53:01.438Z,32.05
2022-10-12T05:55:39.633Z,39.05
2022-10-12T05:58:14.634Z,37.67
2022-10-12T06:00:46.219Z,33.45
2022-10-12T06:03:21.130Z,38.13
2022-10-12T06:06:25.447Z,34.63
2022-10-12T06:08:57.701Z,24.35
2022-10-12T06:11:30.429Z,32.33
2022-10-12T06:14:15.785Z,25.05
2022-10-12T06:16:54.632Z,29.05
2022-10-12T06:19:32.448Z,29.02
2022-10-12T06:22:21.572Z,37.13
2022-10-12T06:25:02.909Z,29.77
2022-10-12T06:27:30.217Z,31.25
2022-10-12T06:30:04.093Z,27.40
2022-10-12T06:32:40.875Z,29.50
2022-10-12T06:35:22.701Z,34.53
2022-10-12T06:37:56.261Z,28.50
2022-10-12T06:40:28.666Z,33.08
2022-10-12T06:42:58.601Z,35.17
2022-10-12T06:45:36.674Z,35.60
2022-10-12T06:48:07.453Z,33.05
2022-10-12T06:50:34.609Z,31.25
2022-10-12T06:53:06.655Z,35.22
2022-10-12T06:55:39.709Z,30.10
2022-10-12T06:58:09.615Z,28.55
2022-10-12T07:00:40.595Z,36.90
2022-10-12T07:03:10.504Z,32.15
2022-10-12T07:05:40.095Z,33.13
2022-10-12T07:08:10.723Z,30.33
2022-10-12T07:10:45.481Z,33.63
2022-10-12T07:19:10.317Z,42.75
2022-10-12T07:21:37.247Z,31.42
2022-10-12T07:24:04.583Z,34.25
2022-10-12T07:26:31.862Z,33.45
2022-10-12T07:28:59.298Z,31.38
2022-10-12T07:31:26.612Z,28.23
2022-10-12T07:33:54.912Z,37.30
2022-10-12T07:36:22.333Z,25.42
2022-10-12T07:38:51.055Z,29.33
2022-10-12T07:41:18.457Z,28.10
2022-10-12T07:43:45.594Z,30.33
2022-10-12T07:46:12.546Z,31.52
2022-10-12T07:48:44.560Z,28.90
2022-10-12T07:51:16.012Z,33.28
2022-10-12T07:53:42.869Z,31.95
2022-10-12T07:56:15.263Z,32.72
2022-10-12T07:58:53.500Z,29.17
2022-10-12T08:01:22.222Z,29.90
2022-10-12T08:03:49.932Z,28.30
2022-10-12T08:06:20.108Z,28.08
2022-10-12T08:08:47.810Z,29.00
2022-10-12T08:11:15.298Z,29.63
2022-10-12T08:13:42.478Z,30.40
2022-10-12T08:16:14.840Z,30.63
2022-10-12T08:18:42.141Z,32.92
2022-10-12T08:21:10.843Z,25.08
2022-10-12T08:23:38.420Z,26.90
2022-10-12T08:26:05.961Z,24.15
2022-10-12T08:28:33.150Z,26.88
2022-10-12T08:31:00.731Z,21.65
2022-10-12T08:33:29.962Z,33.50
2022-10-12T08:35:56.836Z,24.88
2022-10-12T08:38:23.625Z,25.55
2022-10-12T08:41:18.961Z,23.55
2022-10-12T08:43:58.009Z,24.65
2022-10-12T08:46:26.590Z,26.30
2022-10-12T08:49:05.997Z,25.88
2022-10-12T08:51:39.391Z,26.42
2022-10-12T08:54:08.466Z,33.75
2022-10-12T08:56:35.916Z,31.00
2022-10-12T08:59:03.617Z,27.05
2022-10-12T09:01:37.361Z,29.90
2022-10-12T09:04:19.349Z,24.98
2022-10-12T09:07:00.729Z,26.77
2022-10-12T09:09:33.059Z,23.60
2022-10-12T09:12:15.413Z,27.33
2022-10-12T09:14:43.586Z,22.30
2022-10-12T09:17:33.690Z,22.73
2022-10-12T09:20:06.546Z,22.13
2022-10-12T09:22:35.241Z,22.45
2022-10-12T09:25:03.441Z,18.80
2022-10-12T09:27:31.936Z,18.25
2022-10-12T09:30:03.241Z,21.25
2022-10-12T09:32:45.078Z,19.83
2022-10-12T09:35:15.766Z,18.70
2022-10-12T09:37:44.928Z,19.88
2022-10-12T09:40:27.644Z,21.77
2022-10-12T09:42:56.044Z,18.35
2022-10-12T09:45:22.993Z,20.33
2022-10-12T09:48:08.549Z,20.05
2022-10-12T09:50:50.353Z,19.42
2022-10-12T09:53:27.380Z,17.73
2022-10-12T09:56:19.562Z,25.45
2022-10-12T09:59:05.886Z,17.70
2022-10-12T10:01:35.479Z,18.15
2022-10-12T10:04:11.212Z,22.30
2022-10-12T10:06:40.302Z,16.20
2022-10-12T10:09:26.908Z,24.88
2022-10-12T10:11:54.321Z,19.33
2022-10-12T10:14:21.598Z,18.65
2022-10-12T10:16:54.572Z,18.83
2022-10-12T10:19:25.123Z,18.48
2022-10-12T10:21:53.556Z,18.40
2022-10-12T10:24:26.209Z,19.02
2022-10-12T10:27:05.924Z,18.65
2022-10-12T10:29:32.654Z,16.73
2022-10-12T10:32:26.928Z,17.92
2022-10-12T10:35:04.129Z,16.77
2022-10-12T10:37:31.735Z,17.15
2022-10-12T10:39:59.549Z,16.45
2022-10-12T10:42:31.581Z,16.45
2022-10-12T10:45:02.332Z,18.13
2022-10-12T10:47:31.089Z,17.30
2022-10-12T10:50:01.773Z,16.80
2022-10-12T10:52:31.722Z,18.73
2022-10-12T10:55:11.397Z,14.38
2022-10-12T10:58:03.300Z,15.38
2022-10-12T11:00:39.055Z,16.23
2022-10-12T11:03:11.867Z,18.40
2022-10-12T11:05:46.715Z,16.05
2022-10-12T11:08:25.791Z,15.32
2022-10-12T11:10:58.233Z,15.55
2022-10-12T11:13:42.888Z,16.02
2022-10-12T11:16:29.562Z,14.70
2022-10-12T11:19:06.728Z,15.38
2022-10-12T11:21:43.176Z,13.57
2022-10-12T11:24:39.485Z,15.60
2022-10-12T11:27:33.559Z,17.17
2022-10-12T11:30:09.249Z,15.45
2022-10-12T11:32:43.264Z,15.30
2022-10-12T11:35:22.138Z,15.88
2022-10-12T11:37:59.259Z,16.15
2022-10-12T11:41:00.337Z,16.05
2022-10-12T11:43:30.186Z,16.60
2022-10-12T11:46:05.866Z,14.45
2022-10-12T11:48:39.632Z,14.65
2022-10-12T11:51:07.421Z,15.02
2022-10-12T11:53:58.856Z,15.57
2022-10-12T11:56:38.558Z,15.27
2022-10-12T11:59:32.521Z,16.10
2022-10-12T12:02:22.998Z,17.73
2022-10-12T12:04:50.861Z,17.27
2022-10-12T12:07:43.446Z,18.92
2022-10-12T12:10:25.607Z,21.55
2022-10-12T12:13:18.241Z,23.52
2022-10-12T12:15:47.859Z,19.98
2022-10-12T12:18:26.098Z,19.75
2022-10-12T12:21:02.942Z,19.65
2022-10-12T12:23:38.575Z,25.83
2022-10-12T12:26:16.210Z,20.20
2022-10-12T12:29:10.431Z,25.58
2022-10-12T12:31:37.690Z,27.83
2022-10-12T12:34:14.160Z,28.02
2022-10-12T12:36:47.152Z,22.35
2022-10-12T12:39:33.378Z,22.55
2022-10-12T12:42:06.549Z,26.88
2022-10-12T12:44:41.360Z,23.15
2022-10-12T12:50:01.165Z,23.60
2022-10-12T12:52:38.927Z,27.10
2022-10-12T12:55:17.617Z,23.83
2022-10-12T12:58:05.441Z,24.52
2022-10-12T13:00:51.001Z,23.25
2022-10-12T13:03:45.545Z,26.45
2022-10-12T13:06:18.240Z,27.17
2022-10-12T13:09:00.080Z,22.60
2022-10-12T13:11:47.605Z,16.33
2022-10-12T13:14:36.191Z,18.17
2022-10-12T13:17:32.798Z,19.38
2022-10-12T13:20:10.278Z,21.73
2022-10-12T13:22:37.217Z,22.52
2022-10-12T13:25:07.861Z,21.70
2022-10-12T13:27:51.823Z,24.75
2022-10-12T13:30:40.869Z,21.98
2022-10-12T13:33:11.296Z,19.55
2022-10-12T13:36:17.285Z,21.63
2022-10-12T13:38:44.516Z,23.30
2022-10-12T13:41:14.763Z,27.05
2022-10-12T13:43:53.626Z,21.30
2022-10-12T13:46:59.210Z,25.25
2022-10-12T13:49:41.590Z,24.85
2022-10-12T13:52:11.491Z,21.40
2022-10-12T13:54:49.912Z,21.50
2022-10-12T13:57:42.996Z,23.15
2022-10-12T14:00:20.342Z,22.33
2022-10-12T14:02:58.982Z,22.05
2022-10-12T14:05:28.323Z,21.65
2022-10-12T14:08:17.109Z,19.77
2022-10-12T14:10:44.921Z,21.10
2022-10-12T14:13:17.863Z,21.60
2022-10-12T14:15:44.830Z,20.15
2022-10-12T14:18:51.012Z,23.77
2022-10-12T14:21:23.380Z,26.50
2022-10-12T14:23:59.392Z,20.17
2022-10-12T14:26:34.757Z,23.05
2022-10-12T14:29:27.510Z,19.20
2022-10-12T14:31:56.742Z,20.05
2022-10-12T14:34:27.837Z,19.95
2022-10-12T14:37:06.633Z,22.17
2022-10-12T14:39:33.715Z,17.55
2022-10-12T14:42:18.652Z,20.20
2022-10-12T14:44:45.516Z,18.52
2022-10-12T14:47:22.409Z,18.20
2022-10-12T14:49:51.720Z,17.90
2022-10-12T14:52:25.640Z,20.08
2022-10-12T14:57:29.723Z,21.33
2022-10-12T14:59:57.367Z,21.52
2022-10-12T15:02:29.314Z,20.70
2022-10-12T15:04:56.788Z,19.48
2022-10-12T15:07:30.857Z,18.70
2022-10-12T15:09:58.592Z,25.63
2022-10-12T15:12:27.122Z,21.25
2022-10-12T15:14:56.322Z,19.27
2022-10-12T15:17:23.487Z,22.63
2022-10-12T15:19:51.528Z,25.77
2022-10-12T15:22:25.729Z,20.05
2022-10-12T15:24:54.148Z,23.20
2022-10-12T15:27:21.320Z,26.30
2022-10-12T15:29:48.723Z,25.45
2022-10-12T15:32:17.655Z,22.80
2022-10-12T15:34:44.921Z,21.05
2022-10-12T15:37:12.337Z,21.10
2022-10-12T15:39:42.751Z,21.88
2022-10-12T15:42:12.459Z,25.45
2022-10-12T15:44:42.811Z,26.58
2022-10-12T15:47:11.576Z,35.85
2022-10-12T15:49:38.754Z,29.60
2022-10-12T15:52:09.602Z,29.23
2022-10-12T15:54:36.604Z,28.27
2022-10-12T15:57:03.530Z,23.63
2022-10-12T15:59:31.268Z,31.65
2022-10-12T16:01:59.211Z,23.50
2022-10-12T16:04:26.522Z,25.27
2022-10-12T16:06:53.362Z,27.35
2022-10-12T16:09:20.556Z,34.03
2022-10-12T16:11:49.024Z,34.03
2022-10-12T16:14:16.420Z,28.58
2022-10-12T16:16:43.581Z,29.70
2022-10-12T16:19:10.809Z,31.17
2022-10-12T16:21:38.344Z,23.73
2022-10-12T16:24:08.516Z,29.13
2022-10-12T16:26:35.318Z,23.00
2022-10-12T16:29:11.466Z,23.83
2022-10-12T16:31:44.005Z,33.40
2022-10-12T16:34:11.210Z,26.25
2022-10-12T16:36:38.985Z,31.27
2022-10-12T16:39:06.274Z,40.88
2022-10-12T16:41:34.089Z,48.97
2022-10-12T16:44:01.774Z,43.28
2022-10-12T16:46:28.550Z,38.30
2022-10-12T16:48:55.478Z,46.22
2022-10-12T16:51:22.246Z,38.38
2022-10-12T16:53:49.038Z,32.80
2022-10-12T16:56:16.225Z,32.75
2022-10-12T16:58:42.997Z,28.77
2022-10-12T17:01:14.145Z,30.65
2022-10-12T17:03:41.683Z,38.22
2022-10-12T17:06:09.160Z,39.50
2022-10-12T17:08:38.993Z,46.72
2022-10-12T17:11:13.373Z,47.55
2022-10-12T17:13:45.210Z,51.92
2022-10-12T17:16:34.051Z,47.38
2022-10-12T17:19:00.808Z,44.13
2022-10-12T17:21:28.094Z,35.05
2022-10-12T17:23:59.562Z,37.20
2022-10-12T17:26:27.215Z,37.22
2022-10-12T17:28:54.256Z,39.85
2022-10-12T17:31:21.205Z,37.72
2022-10-12T17:33:49.176Z,44.83
2022-10-12T17:36:16.179Z,31.02
2022-10-12T17:38:43.397Z,30.60
2022-10-12T17:41:10.291Z,32.33
2022-10-12T17:43:37.125Z,36.70
2022-10-12T17:46:07.275Z,32.42
2022-10-12T17:48:34.690Z,33.15
2022-10-12T17:51:03.306Z,33.47
2022-10-12T17:53:30.110Z,32.67
2022-10-12T17:56:02.002Z,27.90
2022-10-12T17:58:29.441Z,30.27
2022-10-12T18:00:56.535Z,35.15
2022-10-12T18:03:26.318Z,32.17
2022-10-12T18:05:53.155Z,40.53
2022-10-12T18:08:20.282Z,35.15
2022-10-12T18:10:47.135Z,53.75
2022-10-12T18:13:14.049Z,43.03
2022-10-12T18:15:44.067Z,39.00
2022-10-12T18:18:15.137Z,35.65
2022-10-12T18:20:42.388Z,32.38
2022-10-12T18:23:09.429Z,33.35
2022-10-12T18:25:41.822Z,40.05
2022-10-12T18:28:10.854Z,32.00
2022-10-12T18:30:45.166Z,33.33
2022-10-12T18:33:12.267Z,36.28
2022-10-12T18:35:39.505Z,29.23
2022-10-12T18:38:06.408Z,32.03
2022-10-12T18:40:36.612Z,43.90
2022-10-12T18:43:06.641Z,35.75
2022-10-12T18:45:33.532Z,30.27
2022-10-12T18:48:00.731Z,30.23
2022-10-12T18:50:28.095Z,45.50
2022-10-12T18:52:55.271Z,51.47
2022-10-12T18:55:22.093Z,38.90
2022-10-12T18:57:48.858Z,42.03
2022-10-12T19:00:16.124Z,41.38
2022-10-12T19:02:42.966Z,41.97
2022-10-12T19:05:09.854Z,40.08
2022-10-12T19:07:36.850Z,39.22
2022-10-12T19:10:08.426Z,34.15
2022-10-12T19:12:35.892Z,40.08
2022-10-12T19:15:03.719Z,32.72
2022-10-12T19:17:31.465Z,31.92
2022-10-12T19:19:59.522Z,33.85
2022-10-12T19:22:26.923Z,30.48
2022-10-12T19:24:54.173Z,33.63
2022-10-12T19:27:21.012Z,34.25
2022-10-12T19:29:47.801Z,32.78
2022-10-12T19:32:14.540Z,30.55
2022-10-12T19:34:41.275Z,31.83
2022-10-12T19:37:08.477Z,37.83
2022-10-12T19:39:36.360Z,38.08
2022-10-12T19:42:03.208Z,35.58
2022-10-12T19:44:30.031Z,42.15
2022-10-12T19:46:58.296Z,38.35
2022-10-12T19:49:25.184Z,40.67
2022-10-12T19:51:52.022Z,45.17
2022-10-12T19:54:19.789Z,42.05
2022-10-12T19:56:46.720Z,37.42
2022-10-12T19:59:13.880Z,47.92
2022-10-12T20:01:40.673Z,44.80
2022-10-12T20:04:10.064Z,48.55
2022-10-12T20:06:38.272Z,36.15
2022-10-12T20:09:07.531Z,37.22
2022-10-12T20:11:35.740Z,35.85
2022-10-12T20:14:03.385Z,43.92
2022-10-12T20:16:34.820Z,46.85
2022-10-12T20:19:02.895Z,47.03
2022-10-12T20:21:29.695Z,45.55
2022-10-12T20:23:56.854Z,47.13
2022-10-12T20:26:25.792Z,44.92
2022-10-12T20:28:54.221Z,40.15
2022-10-12T20:31:23.837Z,45.47
2022-10-12T20:33:54.545Z,39.97
2022-10-12T20:36:26.411Z,40.45
2022-10-12T20:38:53.817Z,38.65
2022-10-12T20:41:21.837Z,48.03
2022-10-12T20:43:48.894Z,40.53
2022-10-12T20:46:24.088Z,38.17
2022-10-12T20:48:55.897Z,36.38
2022-10-12T20:51:31.387Z,44.47
2022-10-12T20:54:00.797Z,40.35
2022-10-12T20:56:30.911Z,39.17
2022-10-12T20:59:01.489Z,29.25
2022-10-12T21:01:28.744Z,29.88
2022-10-12T21:03:56.369Z,28.92
2022-10-12T21:06:23.858Z,24.65
2022-10-12T21:08:53.519Z,27.77
2022-10-12T21:11:21.164Z,27.95
2022-10-12T21:13:48.005Z,29.15
2022-10-12T21:16:15.449Z,30.05
2022-10-12T21:18:43.164Z,28.20
2022-10-12T21:21:12.978Z,26.05
2022-10-12T21:23:41.137Z,32.15
2022-10-12T21:26:16.977Z,29.38
2022-10-12T21:28:44.468Z,30.05
2022-10-12T21:31:12.804Z,31.00
2022-10-12T21:33:40.643Z,27.27
2022-10-12T21:36:13.443Z,32.83
2022-10-12T21:38:40.969Z,25.02
2022-10-12T21:41:09.013Z,25.05
2022-10-12T21:43:37.259Z,26.40
2022-10-12T21:46:06.940Z,22.77
2022-10-12T21:48:34.671Z,31.48
2022-10-12T21:51:02.282Z,29.58
2022-10-12T21:53:29.766Z,27.85
2022-10-12T21:55:56.916Z,26.67
2022-10-12T21:58:24.066Z,28.73
2022-10-12T22:00:50.885Z,24.65
2022-10-12T22:03:17.637Z,26.73
2022-10-12T22:05:44.893Z,27.25
2022-10-12T22:08:11.757Z,22.95
2022-10-12T22:10:39.249Z,25.77
2022-10-12T22:13:06.856Z,25.17
2022-10-12T22:15:33.946Z,24.65
2022-10-12T22:18:01.137Z,24.10
2022-10-12T22:20:28.255Z,26.92
2022-10-12T22:22:54.992Z,24.45
2022-10-12T22:25:21.754Z,24.25
2022-10-12T22:27:48.550Z,26.35
2022-10-12T22:30:15.459Z,25.50
2022-10-12T22:32:42.720Z,22.63
2022-10-12T22:35:09.649Z,23.23
2022-10-12T22:37:36.865Z,24.40
2022-10-12T22:40:05.376Z,27.73
2022-10-12T22:42:32.103Z,26.15
2022-10-12T22:44:59.253Z,24.95
2022-10-12T22:47:26.357Z,24.00
2022-10-12T22:49:53.493Z,25.73
2022-10-12T22:52:20.625Z,24.77
2022-10-12T22:54:47.784Z,23.40
2022-10-12T22:57:14.518Z,26.00
2022-10-12T22:59:41.845Z,22.55
2022-10-12T23:02:08.597Z,25.77
2022-10-12T23:04:35.462Z,28.90
2022-10-12T23:07:02.188Z,32.47
2022-10-12T23:09:29.325Z,27.48
2022-10-12T23:11:56.100Z,24.63
2022-10-12T23:14:22.875Z,34.08
2022-10-12T23:16:50.148Z,26.17
2022-10-12T23:19:17.265Z,30.40
2022-10-12T23:21:44.070Z,30.85
2022-10-12T23:24:10.911Z,30.80
2022-10-12T23:26:38.014Z,22.83
2022-10-12T23:29:04.754Z,28.00
2022-10-12T23:31:32.374Z,27.80
2022-10-12T23:34:01.584Z,31.35
2022-10-12T23:36:29.086Z,24.75
2022-10-12T23:38:56.595Z,25.30
2022-10-12T23:41:23.830Z,26.08
2022-10-12T23:43:50.676Z,21.98
2022-10-12T23:46:17.409Z,25.38
2022-10-12T23:48:44.519Z,24.73
2022-10-12T23:51:11.599Z,27.73
2022-10-12T23:53:39.035Z,22.58
2022-10-12T23:56:06.931Z,29.50
2022-10-12T23:58:34.829Z,26.27
